JBU1620 KBOS-EGLL
Flight info
| Callsign | JBU1620 |
|---|---|
| Flight time | N/A |
| Altitude | 35000 |
| Route | LBSTA8 LBSTA DCT ALLEX N535B UMESI/M077F350 NATU OLGON/N0442F350 DCT ENJEX DCT AVZAC DCT INFEC DCT JETZI DCT AMFUL DCT ORZEB P2 SIRIC |
| Aircraft | A21N/M-SDE2E3FGHIRWXY/LB1 |
Departure
| Time | 2026-05-08 04:14 |
|---|---|
| Airport | Boston Logan International Airport (KBOS) |
Arrival
| Time | N/A |
|---|---|
| Airport | London Heathrow Airport (EGLL) |
| Time | Latitude | Longitude | Altitude | Speed | Heading |
|---|---|---|---|---|---|
| 2026-05-08 03:00 | 42.36505 | -71.01441 | 31 ft | 0 kts | 324° |
| 2026-05-08 04:02 | 42.36500 | -71.01436 | 31 ft | 4 kts | 324° |
| 2026-05-08 04:02 | 42.36482 | -71.01418 | 31 ft | 3 kts | 324° |
| 2026-05-08 04:03 | 42.36464 | -71.01395 | 31 ft | 4 kts | 287° |
| 2026-05-08 04:03 | 42.36490 | -71.01353 | 31 ft | 4 kts | 206° |
| 2026-05-08 04:03 | 42.36509 | -71.01341 | 31 ft | 4 kts | 206° |
| 2026-05-08 04:04 | 42.36522 | -71.01332 | 31 ft | 0 kts | 206° |
| 2026-05-08 04:08 | 42.36508 | -71.01341 | 31 ft | 4 kts | 206° |
| 2026-05-08 04:08 | 42.36469 | -71.01366 | 31 ft | 8 kts | 202° |
| 2026-05-08 04:08 | 42.36405 | -71.01399 | 31 ft | 11 kts | 200° |
| 2026-05-08 04:08 | 42.36346 | -71.01340 | 31 ft | 12 kts | 120° |
| 2026-05-08 04:09 | 42.36300 | -71.01238 | 31 ft | 13 kts | 122° |
| 2026-05-08 04:09 | 42.36253 | -71.01125 | 31 ft | 14 kts | 114° |
| 2026-05-08 04:09 | 42.36211 | -71.00998 | 31 ft | 15 kts | 114° |
| 2026-05-08 04:09 | 42.36166 | -71.00862 | 31 ft | 16 kts | 114° |
| 2026-05-08 04:10 | 42.36120 | -71.00719 | 32 ft | 17 kts | 109° |
| 2026-05-08 04:10 | 42.36080 | -71.00562 | 31 ft | 18 kts | 109° |
| 2026-05-08 04:10 | 42.36039 | -71.00399 | 31 ft | 19 kts | 109° |
| 2026-05-08 04:10 | 42.35996 | -71.00228 | 31 ft | 19 kts | 109° |
| 2026-05-08 04:11 | 42.35938 | -71.00061 | 31 ft | 20 kts | 132° |
| 2026-05-08 04:11 | 42.35837 | -70.99924 | 31 ft | 21 kts | 135° |
| 2026-05-08 04:11 | 42.35732 | -70.99784 | 31 ft | 22 kts | 135° |
| 2026-05-08 04:11 | 42.35624 | -70.99639 | 31 ft | 22 kts | 135° |
| 2026-05-08 04:12 | 42.35528 | -70.99511 | 31 ft | 9 kts | 135° |
| 2026-05-08 04:12 | 42.35489 | -70.99438 | 31 ft | 10 kts | 101° |
| 2026-05-08 04:12 | 42.35502 | -70.99336 | 31 ft | 12 kts | 76° |
| 2026-05-08 04:12 | 42.35550 | -70.99275 | 31 ft | 13 kts | 323° |
| 2026-05-08 04:13 | 42.35558 | -70.99285 | 31 ft | 0 kts | 313° |
| 2026-05-08 04:13 | 42.35560 | -70.99288 | 31 ft | 4 kts | 313° |
| 2026-05-08 04:13 | 42.35714 | -70.99499 | 31 ft | 65 kts | 315° |
| 2026-05-08 04:13 | 42.36186 | -71.00133 | 28 ft | 124 kts | 315° |
| 2026-05-08 04:14 | 42.36904 | -71.01092 | 127 ft | 154 kts | 315° |
| 2026-05-08 04:14 | 42.37616 | -71.02114 | 649 ft | 151 kts | 304° |
| 2026-05-08 04:14 | 42.38263 | -71.03240 | 1121 ft | 154 kts | 311° |
| 2026-05-08 04:14 | 42.38983 | -71.04442 | 1403 ft | 174 kts | 300° |
| 2026-05-08 04:15 | 42.39596 | -71.05942 | 1834 ft | 190 kts | 299° |
| 2026-05-08 04:15 | 42.40281 | -71.07572 | 2205 ft | 211 kts | 300° |
| 2026-05-08 04:15 | 42.41134 | -71.09321 | 2563 ft | 233 kts | 311° |
| 2026-05-08 04:15 | 42.42456 | -71.10648 | 3180 ft | 243 kts | 333° |
| 2026-05-08 04:16 | 42.44036 | -71.11526 | 3951 ft | 247 kts | 337° |
| 2026-05-08 04:16 | 42.45652 | -71.12368 | 4746 ft | 251 kts | 337° |
| 2026-05-08 04:16 | 42.47269 | -71.13223 | 5534 ft | 254 kts | 336° |
| 2026-05-08 04:16 | 42.48956 | -71.13952 | 6355 ft | 257 kts | 347° |
| 2026-05-08 04:17 | 42.50758 | -71.13900 | 7075 ft | 266 kts | 9° |
| 2026-05-08 04:17 | 42.52461 | -71.12815 | 7732 ft | 279 kts | 34° |
| 2026-05-08 04:17 | 42.53792 | -71.10833 | 8427 ft | 289 kts | 50° |
| 2026-05-08 04:17 | 42.54950 | -71.08568 | 9097 ft | 295 kts | 52° |
| 2026-05-08 04:18 | 42.56123 | -71.06259 | 9743 ft | 299 kts | 51° |
| 2026-05-08 04:18 | 42.57338 | -71.03931 | 10254 ft | 308 kts | 51° |
| 2026-05-08 04:18 | 42.58597 | -71.01550 | 10562 ft | 324 kts | 51° |
| 2026-05-08 04:18 | 42.59948 | -70.99002 | 10828 ft | 340 kts | 51° |
| 2026-05-08 04:19 | 42.61367 | -70.96338 | 11078 ft | 357 kts | 51° |
| 2026-05-08 04:19 | 42.62856 | -70.93548 | 11327 ft | 373 kts | 51° |
| 2026-05-08 04:19 | 42.64409 | -70.90639 | 11680 ft | 385 kts | 51° |
| 2026-05-08 04:19 | 42.65995 | -70.87676 | 12244 ft | 391 kts | 52° |
| 2026-05-08 04:20 | 42.67604 | -70.84670 | 12854 ft | 395 kts | 52° |
| 2026-05-08 04:20 | 42.69228 | -70.81630 | 13440 ft | 400 kts | 52° |
| 2026-05-08 04:20 | 42.70852 | -70.78585 | 13963 ft | 405 kts | 53° |
| 2026-05-08 04:20 | 42.72517 | -70.75454 | 14446 ft | 412 kts | 53° |
| 2026-05-08 04:21 | 42.74208 | -70.72275 | 14902 ft | 418 kts | 53° |
| 2026-05-08 04:21 | 42.75926 | -70.69047 | 15363 ft | 425 kts | 53° |
| 2026-05-08 04:21 | 42.77671 | -70.65764 | 15876 ft | 430 kts | 53° |
| 2026-05-08 04:21 | 42.79431 | -70.62441 | 16363 ft | 435 kts | 53° |
| 2026-05-08 04:22 | 42.81126 | -70.59010 | 16838 ft | 440 kts | 56° |
| 2026-05-08 04:22 | 42.82781 | -70.55531 | 17295 ft | 446 kts | 56° |
| 2026-05-08 04:22 | 42.84496 | -70.51913 | 17696 ft | 453 kts | 57° |
| 2026-05-08 04:22 | 42.86197 | -70.48312 | 18030 ft | 461 kts | 57° |
| 2026-05-08 04:23 | 42.87943 | -70.44617 | 18411 ft | 466 kts | 57° |
| 2026-05-08 04:23 | 42.89709 | -70.40882 | 18808 ft | 470 kts | 57° |
| 2026-05-08 04:23 | 42.91483 | -70.37127 | 19248 ft | 474 kts | 57° |
| 2026-05-08 04:23 | 42.93273 | -70.33329 | 19676 ft | 477 kts | 57° |
| 2026-05-08 04:24 | 42.95072 | -70.29507 | 20080 ft | 481 kts | 57° |
| 2026-05-08 04:24 | 42.96885 | -70.25642 | 20455 ft | 485 kts | 58° |
| 2026-05-08 04:24 | 42.98712 | -70.21752 | 20826 ft | 489 kts | 58° |
| 2026-05-08 04:24 | 43.00531 | -70.17878 | 21140 ft | 493 kts | 58° |
| 2026-05-08 04:25 | 43.02387 | -70.13910 | 21493 ft | 498 kts | 58° |
| 2026-05-08 04:25 | 43.04256 | -70.09908 | 21849 ft | 502 kts | 58° |
| 2026-05-08 04:25 | 43.06146 | -70.05868 | 22217 ft | 505 kts | 58° |
| 2026-05-08 04:25 | 43.08042 | -70.01809 | 22575 ft | 509 kts | 58° |
| 2026-05-08 04:26 | 43.09952 | -69.97714 | 22918 ft | 512 kts | 58° |
| 2026-05-08 04:26 | 43.11871 | -69.93587 | 23268 ft | 516 kts | 58° |
| 2026-05-08 04:26 | 43.13775 | -69.89489 | 23580 ft | 519 kts | 58° |
| 2026-05-08 04:26 | 43.15710 | -69.85311 | 23829 ft | 521 kts | 58° |
| 2026-05-08 04:27 | 43.17652 | -69.81115 | 24158 ft | 523 kts | 58° |
| 2026-05-08 04:27 | 43.19595 | -69.76903 | 24485 ft | 525 kts | 58° |
| 2026-05-08 04:27 | 43.21551 | -69.72657 | 24765 ft | 528 kts | 58° |
| 2026-05-08 04:27 | 43.23515 | -69.68397 | 25055 ft | 530 kts | 58° |
| 2026-05-08 04:28 | 43.25496 | -69.64110 | 25339 ft | 533 kts | 58° |
| 2026-05-08 04:28 | 43.27478 | -69.59809 | 25622 ft | 535 kts | 58° |
| 2026-05-08 04:28 | 43.29465 | -69.55483 | 25887 ft | 537 kts | 58° |
| 2026-05-08 04:28 | 43.31459 | -69.51133 | 26173 ft | 539 kts | 58° |
| 2026-05-08 04:29 | 43.33436 | -69.46817 | 26454 ft | 542 kts | 58° |
| 2026-05-08 04:29 | 43.35444 | -69.42427 | 26725 ft | 544 kts | 58° |
| 2026-05-08 04:29 | 43.37462 | -69.38008 | 26990 ft | 546 kts | 58° |
| 2026-05-08 04:29 | 43.39483 | -69.33575 | 27246 ft | 549 kts | 58° |
| 2026-05-08 04:30 | 43.41511 | -69.29115 | 27483 ft | 550 kts | 58° |
| 2026-05-08 04:30 | 43.43538 | -69.24655 | 27766 ft | 551 kts | 58° |
| 2026-05-08 04:30 | 43.45570 | -69.20173 | 28112 ft | 552 kts | 58° |
| 2026-05-08 04:30 | 43.47598 | -69.15694 | 28416 ft | 552 kts | 58° |
| 2026-05-08 04:31 | 43.49601 | -69.11268 | 28729 ft | 552 kts | 58° |
| 2026-05-08 04:31 | 43.51629 | -69.06778 | 29050 ft | 551 kts | 58° |
| 2026-05-08 04:31 | 43.53651 | -69.02293 | 29360 ft | 551 kts | 58° |
| 2026-05-08 04:31 | 43.55673 | -68.97805 | 29663 ft | 551 kts | 58° |
| 2026-05-08 04:32 | 43.57693 | -68.93311 | 29939 ft | 551 kts | 58° |
| 2026-05-08 04:32 | 43.59710 | -68.88813 | 30228 ft | 550 kts | 58° |
| 2026-05-08 04:32 | 43.61724 | -68.84317 | 30465 ft | 551 kts | 58° |
| 2026-05-08 04:32 | 43.63730 | -68.79826 | 30714 ft | 550 kts | 58° |
| 2026-05-08 04:33 | 43.65704 | -68.75389 | 30962 ft | 549 kts | 59° |
| 2026-05-08 04:33 | 43.67687 | -68.70897 | 31173 ft | 548 kts | 59° |
| 2026-05-08 04:33 | 43.69676 | -68.66421 | 31483 ft | 546 kts | 59° |
| 2026-05-08 04:33 | 43.71668 | -68.61959 | 31723 ft | 544 kts | 59° |
| 2026-05-08 04:34 | 43.73653 | -68.57509 | 31951 ft | 544 kts | 59° |
| 2026-05-08 04:34 | 43.75639 | -68.53049 | 32145 ft | 544 kts | 59° |
| 2026-05-08 04:34 | 43.77611 | -68.48597 | 32338 ft | 543 kts | 59° |
| 2026-05-08 04:34 | 43.79583 | -68.44126 | 32536 ft | 543 kts | 59° |
| 2026-05-08 04:35 | 43.81526 | -68.39728 | 32731 ft | 542 kts | 60° |
| 2026-05-08 04:35 | 43.83487 | -68.35270 | 32908 ft | 542 kts | 60° |
| 2026-05-08 04:35 | 43.85441 | -68.30806 | 33089 ft | 542 kts | 60° |
| 2026-05-08 04:35 | 43.87399 | -68.26356 | 33297 ft | 541 kts | 60° |
| 2026-05-08 04:36 | 43.89356 | -68.21910 | 33454 ft | 541 kts | 60° |
| 2026-05-08 04:36 | 43.91312 | -68.17444 | 33633 ft | 541 kts | 60° |
| 2026-05-08 04:36 | 43.93256 | -68.12984 | 33791 ft | 540 kts | 60° |
| 2026-05-08 04:36 | 43.95194 | -68.08525 | 33910 ft | 539 kts | 60° |
| 2026-05-08 04:37 | 43.97110 | -68.04133 | 34024 ft | 539 kts | 60° |
| 2026-05-08 04:37 | 43.99048 | -67.99689 | 34125 ft | 539 kts | 60° |
| 2026-05-08 04:37 | 44.00985 | -67.95231 | 34237 ft | 539 kts | 61° |
| 2026-05-08 04:37 | 44.02919 | -67.90756 | 34327 ft | 540 kts | 61° |
| 2026-05-08 04:38 | 44.06794 | -67.81818 | 34515 ft | 540 kts | 61° |
| 2026-05-08 04:38 | 44.10650 | -67.72844 | 34693 ft | 540 kts | 61° |